Latest Coastal Weather Observations for Hogan Island

IDT60701

Issued at 1:42 pm EST Sunday 25 September 2016 (issued every 10 minutes, with the page automatically refreshed every 10 minutes)

About coastal observations | Map of coastal stations | Coastal observations for TAS | Marine services | Other Formats
Station Details ID: 200838 Name: HOGAN ISLAND Lat: -39.22 Lon: 146.98 Height: 116.0 m
Data from the previous 72 hours. | See also: Recent months at Hogan Island
Date/Time
EST
Temp
°C
Wind Pressure Rain since
9am
mm
Weather Cloud Vis
km
Sea
Height
m
Swell
Dir  Spd
kts
Gust
kts
hPa Trend Height
m
Period
s
Dir
25/01:30pm 13.0 W 32 37 1008.5 - 0.0 - - - - - - -
25/01:00pm 12.8 WSW 32 38 1008.4 - 0.0 - - - - - - -
25/12:30pm 12.5 W 30 35 1008.3 - 0.0 - - - - - - -
25/12:00pm 13.3 W 31 36 1008.2 - 0.0 - - - - - - -
25/11:30am 13.0 W 31 35 1008.1 - 0.0 - - - - - - -
25/11:00am 12.2 W 32 38 1007.8 - 0.0 - - - - - - -
25/10:30am 12.5 W 34 38 1007.5 - 0.0 - - - - - - -
25/10:00am 12.6 W 32 36 1007.4 - 0.0 - - - - - - -
25/09:30am 12.4 W 33 38 1007.2 - 0.0 - - - - - - -
25/09:00am 12.2 W 34 38 1007.0 - 0.0 - - - - - - -
25/08:30am 11.7 WSW 32 38 1006.7 - 0.0 - - - - - - -
25/08:00am 11.6 W 33 38 1006.1 - 0.0 - - - - - - -
25/07:30am 11.3 W 32 36 1005.7 - 0.0 - - - - - - -
25/07:00am 11.1 W 35 40 1005.3 - 0.0 - - - - - - -
25/06:30am 10.9 WSW 34 39 1005.1 - 0.0 - - - - - - -
25/06:00am 10.8 WSW 34 39 1005.0 - 0.0 - - - - - - -
25/05:30am 11.1 W 33 37 1004.7 - 0.0 - - - - - - -
25/05:00am 11.2 W 27 32 1004.7 - 0.0 - - - - - - -
25/04:30am 11.1 W 28 33 1004.4 - 0.0 - - - - - - -
25/04:03am 11.9 WNW 24 34 1004.0 - 0.0 - - - - - - -
25/04:00am 12.2 WNW 23 27 1004.1 - 0.0 - - - - - - -
25/03:30am 12.4 WNW 18 25 1004.1 - 0.0 - - - - - - -
25/03:00am 12.4 WNW 16 19 1004.4 - 0.0 - - - - - - -
25/02:30am 12.4 W 18 20 1004.5 - 0.0 - - - - - - -
25/02:00am 12.2 W 13 17 1005.1 - 0.0 - - - - - - -
25/01:30am 12.2 WNW 11 13 1005.3 - 0.0 - - - - - - -
25/01:00am 11.8 NW 11 12 1005.3 - 0.0 - - - - - - -
25/12:30am 12.7 NNW 10 11 1005.5 - 0.0 - - - - - - -
25/12:00am 12.8 NNW 9 12 1005.6 - 0.0 - - - - - - -
 
Date/Time
EST
Temp
°C
Wind Pressure Rain since
9am
mm
Weather Cloud Vis
km
Sea
Height
m
Swell
Dir  Spd
kts
Gust
kts
hPa Trend Height
m
Period
s
Dir
24/11:30pm 13.4 NNW 9 11 1005.6 - 0.0 - - - - - - -
24/11:00pm 12.3 N 6 8 1005.6 - 0.0 - - - - - - -
24/10:30pm 12.4 NE 7 8 1005.7 - 0.0 - - - - - - -
24/10:00pm 12.2 ENE 8 10 1005.9 - 0.0 - - - - - - -
24/09:30pm 12.6 E 10 13 1005.9 - 0.0 - - - - - - -
24/09:00pm 12.5 E 12 14 1006.2 - 0.0 - - - - - - -
24/08:30pm 12.4 E 10 11 1006.4 - 0.0 - - - - - - -
24/08:00pm 12.7 ESE 9 10 1006.4 - 0.0 - - - - - - -
24/07:30pm 12.6 E 7 8 1006.5 - 0.0 - - - - - - -
24/07:00pm 12.1 SE 8 9 1006.4 - 0.0 - - - - - - -
24/06:30pm 12.5 SSE 7 8 1006.4 - 0.0 - - - - - - -
24/06:00pm 12.6 S 5 7 1006.4 - 0.0 - - - - - - -
24/05:30pm 12.4 ESE 2 5 1006.2 - 0.0 - - - - - - -
24/05:00pm 14.0 SE 3 5 1006.0 - 0.0 - - - - - - -
24/04:30pm 15.2 W 3 5 1006.3 - 0.0 - - - - - - -
24/04:00pm 14.0 NW 4 6 1006.4 - 0.0 - - - - - - -
24/03:30pm 14.2 NNE 5 7 1006.4 - 0.0 - - - - - - -
24/03:00pm 15.3 N 5 7 1006.5 - 0.0 - - - - - - -
24/02:30pm 12.5 NE 5 7 1006.1 - 0.0 - - - - - - -
24/02:00pm 12.8 ENE 7 9 1006.2 - 0.0 - - - - - - -
24/01:30pm 13.3 ENE 9 11 1006.6 - 0.0 - - - - - - -
24/01:00pm 14.8 ENE 9 11 1007.1 - 0.0 - - - - - - -
24/12:30pm 15.4 N 5 8 1007.7 - 0.0 - - - - - - -
24/12:00pm 16.2 N 9 11 1008.2 - 0.0 - - - - - - -
24/11:30am 16.1 N 9 13 1008.4 - 0.0 - - - - - - -
24/11:00am 15.4 NNE 10 13 1008.8 - 0.0 - - - - - - -
24/10:30am 15.1 NE 11 15 1009.0 - 0.0 - - - - - - -
24/10:00am 14.6 NNE 11 14 1009.3 - 0.0 - - - - - - -
24/09:30am 14.4 NE 11 14 1009.8 - 0.0 - - - - - - -
24/09:00am 13.7 ENE 12 14 1010.0 - 0.0 - - - - - - -
24/08:30am 13.7 ENE 11 13 1009.9 - 0.0 - - - - - - -
24/08:00am 13.4 ENE 11 12 1010.0 - 0.0 - - - - - - -
24/07:30am 13.0 NE 9 11 1010.3 - 0.0 - - - - - - -
24/07:00am 12.3 NE 8 9 1010.6 - 0.0 - - - - - - -
24/06:30am 11.5 NNE 8 9 1010.7 - 0.0 - - - - - - -
24/06:00am 11.7 N 8 10 1010.9 - 0.0 - - - - - - -
24/05:30am 11.6 NNE 9 10 1010.5 - 0.0 - - - - - - -
24/05:00am 11.6 NE 10 12 1010.5 - 0.0 - - - - - - -
24/04:30am 11.6 NE 11 12 1010.5 - 0.0 - - - - - - -
24/04:00am 11.7 NE 12 13 1010.6 - 0.0 - - - - - - -
24/03:30am 11.6 NE 12 14 1010.7 - 0.0 - - - - - - -
24/03:00am 11.8 ENE 15 16 1011.0 - 0.0 - - - - - - -
24/02:30am 11.8 ENE 16 19 1011.2 - 0.0 - - - - - - -
24/02:00am 11.8 E 17 19 1011.4 - 0.0 - - - - - - -
24/01:30am 11.7 E 15 19 1011.8 - 0.0 - - - - - - -
24/01:00am 11.6 E 16 19 1012.0 - 0.0 - - - - - - -
24/12:30am 11.5 E 16 18 1012.1 - 0.0 - - - - - - -
24/12:00am 11.3 E 16 18 1012.3 - 0.0 - - - - - - -
 
Date/Time
EST
Temp
°C
Wind Pressure Rain since
9am
mm
Weather Cloud Vis
km
Sea
Height
m
Swell
Dir  Spd
kts
Gust
kts
hPa Trend Height
m
Period
s
Dir
23/11:30pm 11.1 E 14 16 1012.7 - 0.0 - - - - - - -
23/11:00pm 11.1 E 15 17 1012.8 - 0.0 - - - - - - -
23/10:30pm 11.1 E 16 18 1012.9 - 0.0 - - - - - - -
23/10:00pm 11.1 E 17 19 1013.0 - 0.0 - - - - - - -
23/09:30pm 11.1 E 16 18 1013.2 - 0.0 - - - - - - -
23/09:00pm 10.9 E 15 17 1013.6 - 0.0 - - - - - - -
23/08:30pm 10.9 E 17 18 1013.5 - 0.0 - - - - - - -
23/08:00pm 10.5 E 16 17 1013.6 - 0.0 - - - - - - -
23/07:30pm 10.6 E 14 16 1013.7 - 0.0 - - - - - - -
23/07:00pm 10.6 E 14 15 1013.7 - 0.0 - - - - - - -
23/06:30pm 10.4 E 12 13 1013.8 - 0.0 - - - - - - -
23/06:00pm 10.6 E 10 11 1013.8 - 0.0 - - - - - - -
23/05:30pm 11.2 E 10 11 1013.8 - 0.0 - - - - - - -
23/05:00pm 12.0 E 9 10 1013.9 - 0.0 - - - - - - -
23/04:30pm 12.5 E 9 11 1014.1 - 0.0 - - - - - - -
23/04:00pm 12.8 E 7 9 1014.1 - 0.0 - - - - - - -
23/03:30pm 12.9 E 9 11 1014.3 - 0.0 - - - - - - -
23/03:00pm 13.5 E 8 10 1014.5 - 0.0 - - - - - - -
23/02:30pm 13.7 ESE 9 11 1014.6 - 0.0 - - - - - - -
23/02:00pm 13.6 ESE 8 10 1014.9 - 0.0 - - - - - - -
23/01:30pm 13.8 ESE 7 9 1015.1 - 0.0 - - - - - - -
23/01:00pm 14.0 ESE 7 9 1015.5 - 0.0 - - - - - - -
23/12:30pm 14.3 ENE 4 7 1015.9 - 0.0 - - - - - - -
23/12:00pm 14.8 ESE 6 8 1016.3 - 0.0 - - - - - - -
23/11:30am 14.7 ENE 4 6 1016.6 - 0.0 - - - - - - -
23/11:00am 14.1 W 3 5 1016.8 - 0.0 - - - - - - -
23/10:30am 14.3 ESE 5 7 1017.0 - 0.0 - - - - - - -
23/10:00am 13.0 SSE 4 6 1017.2 - 0.0 - - - - - - -
23/09:30am 12.4 SW 6 7 1017.4 - 0.0 - - - - - - -
23/09:00am 11.7 SW 7 8 1017.5 - 0.0 - - - - - - -
23/08:30am 11.8 SW 7 9 1017.4 - 0.0 - - - - - - -
23/08:00am 11.7 SW 9 10 1017.4 - 0.0 - - - - - - -
23/07:30am 11.5 SW 8 9 1017.4 - 0.0 - - - - - - -
23/07:00am 10.5 SW 7 8 1017.2 - 0.0 - - - - - - -
23/06:30am 9.8 SW 9 11 1017.0 - 0.0 - - - - - - -
23/06:00am 9.7 SW 10 11 1016.8 - 0.0 - - - - - - -
23/05:30am 9.9 SW 12 13 1016.4 - 0.0 - - - - - - -
23/05:00am 10.0 SW 12 14 1016.2 - 0.0 - - - - - - -
23/04:30am 10.1 SW 13 16 1016.1 - 0.0 - - - - - - -
23/04:00am 10.2 SW 15 17 1016.0 - 0.0 - - - - - - -
23/03:30am 10.1 SW 16 18 1016.0 - 0.0 - - - - - - -
23/03:00am 10.2 SW 17 20 1016.1 - 0.0 - - - - - - -
23/02:30am 10.3 WSW 17 21 1015.9 - 0.0 - - - - - - -
23/02:00am 10.5 WSW 18 21 1016.0 - 0.0 - - - - - - -
23/01:30am 10.6 WSW 17 19 1016.1 - 0.0 - - - - - - -
23/01:00am 10.6 WSW 16 17 1016.3 - 0.0 - - - - - - -
23/12:30am 10.7 SW 13 15 1016.3 - 0.0 - - - - - - -
23/12:00am 10.9 WSW 14 15 1016.5 - 0.0 - - - - - - -
 
Date/Time
EST
Temp
°C
Wind Pressure Rain since
9am
mm
Weather Cloud Vis
km
Sea
Height
m
Swell
Dir  Spd
kts
Gust
kts
hPa Trend Height
m
Period
s
Dir
22/11:30pm 11.0 SW 12 14 1016.4 - 0.0 - - - - - - -
22/11:00pm 10.9 SW 15 18 1016.6 - 0.0 - - - - - - -
22/10:30pm 11.1 WSW 17 19 1016.8 - 0.0 - - - - - - -
22/10:00pm 11.0 WSW 19 23 1016.9 - 0.0 - - - - - - -
22/09:30pm 11.3 WSW 19 21 1016.8 - 0.0 - - - - - - -
22/09:00pm 11.2 WSW 17 20 1016.7 - 0.0 - - - - - - -
22/08:30pm 11.2 WSW 16 18 1016.5 - 0.0 - - - - - - -
22/08:00pm 11.4 W 17 19 1016.5 - 0.0 - - - - - - -
22/07:30pm 11.3 WSW 17 19 1016.4 - 0.0 - - - - - - -
22/07:00pm 11.8 W 17 19 1016.2 - 0.0 - - - - - - -
22/06:30pm 11.8 WSW 13 15 1016.1 - 0.0 - - - - - - -
22/06:00pm 11.7 WSW 12 14 1015.9 - 0.0 - - - - - - -
22/05:30pm 12.1 SW 12 14 1015.4 - 0.0 - - - - - - -
22/05:00pm 12.7 SW 14 17 1015.0 - 0.0 - - - - - - -
22/04:30pm 13.1 WSW 14 17 1014.7 - 0.0 - - - - - - -
22/04:00pm 13.5 SW 15 17 1014.3 - 0.0 - - - - - - -
22/03:30pm 14.0 WSW 17 19 1014.1 - 0.0 - - - - - - -
22/03:00pm 13.9 SW 16 19 1014.2 - 0.0 - - - - - - -
22/02:30pm 12.8 WSW 19 22 1014.0 - 0.0 - - - - - - -
22/02:00pm 12.8 SW 17 20 1013.9 - 0.0 - - - - - - -

Other Formats:

Comma delimited format used in spreadsheet applications
http://www.bom.gov.au/fwo/IDT60701/IDT60701.94949.axf

JavaScript Object Notation format (JSON) in row-major order
http://www.bom.gov.au/fwo/IDT60701/IDT60701.94949.json